Time;durP1;ratioP1;P1;durP2;ratioP2;P2;SDS_P1;SDS_P2;PMS_P1;PMS_P2;Temp;Humidity;BMP_temperature;BMP_pressure;BME280_temperature;BME280_humidity;BME280_pressure;Samples;Min_cycle;Max_cycle;Signal;HPM_P1;HPM_P2
2022/04/26 03:37:51;;;;;;;38.40;34.33;;;11.20;82.90;;;9.65;93.46;95537.38;4923941;28;20452;-60
2022/04/26 03:40:17;;;;;;;30.90;27.55;;;11.20;82.70;;;9.66;93.83;95533.72;4886901;28;20368;-61
2022/04/26 03:42:43;;;;;;;31.08;26.90;;;11.20;82.60;;;9.65;94.65;95534.75;4885607;28;20325;-61
2022/04/26 03:45:10;;;;;;;28.15;25.23;;;11.20;82.40;;;9.63;94.68;95534.94;4883758;28;20352;-61
2022/04/26 03:47:36;;;;;;;29.35;26.15;;;11.10;82.40;;;9.63;94.92;95542.81;4886397;28;20368;-61
2022/04/26 03:50:02;;;;;;;29.15;26.08;;;11.10;82.50;;;9.63;93.10;95542.81;4882795;28;20543;-62
2022/04/26 03:52:28;;;;;;;28.67;25.67;;;11.20;82.60;;;9.65;94.73;95548.69;4884891;28;20382;-65
2022/04/26 03:54:54;;;;;;;29.83;26.73;;;11.20;82.50;;;9.66;94.03;95546.88;4979619;28;20037;-60
2022/04/26 03:57:19;;;;;;;29.77;26.70;;;11.30;82.60;;;9.67;94.30;95548.47;5007623;28;20087;-60
2022/04/26 03:59:45;;;;;;;30.55;26.38;;;11.30;82.80;;;9.67;94.33;95559.78;4992878;28;20075;-60
2022/04/26 04:02:11;;;;;;;30.70;27.48;;;11.30;82.50;;;9.66;94.23;95552.94;4991735;28;20065;-62
2022/04/26 04:04:37;;;;;;;30.27;27.08;;;11.20;82.50;;;9.66;94.24;95550.31;5005066;28;20256;-62
2022/04/26 04:07:03;;;;;;;32.15;28.65;;;11.20;82.60;;;9.64;94.57;95549.69;5015558;28;20446;-63
2022/04/26 04:09:29;;;;;;;31.70;28.45;;;11.20;82.50;;;9.62;93.35;95551.69;5018191;28;20495;-61
2022/04/26 04:11:55;;;;;;;32.10;28.63;;;11.20;82.70;;;9.66;95.21;95552.13;5005205;28;20128;-61
2022/04/26 04:14:20;;;;;;;32.40;28.95;;;11.20;83.00;;;9.66;94.74;95555.56;5010661;28;20140;-61
2022/04/26 04:16:46;;;;;;;34.10;28.95;;;11.30;82.70;;;9.68;94.44;95560.59;5011296;28;20131;-62
2022/04/26 04:19:18;;;;;;;30.55;27.30;;;11.30;83.00;;;9.67;95.63;95561.63;4987636;28;20116;-61
2022/04/26 04:21:45;;;;;;;30.77;27.58;;;11.30;83.20;;;9.68;95.13;95566.66;4989492;28;20040;-61
2022/04/26 04:24:12;;;;;;;30.48;27.17;;;11.30;83.30;;;9.69;95.10;95565.66;5010699;28;20090;-61
2022/04/26 04:26:38;;;;;;;32.90;29.20;;;11.30;83.30;;;9.67;95.47;95570.31;5011277;28;20041;-61
2022/04/26 04:29:05;;;;;;;32.72;27.83;;;11.20;83.30;;;9.64;94.89;95564.63;4988911;28;20044;-61
2022/04/26 04:31:32;;;;;;;53.47;44.35;;;11.20;83.40;;;9.65;95.85;95564.44;5022386;28;20045;-61
2022/04/26 04:33:58;;;;;;;52.80;47.10;;;11.30;83.40;;;9.68;96.34;95574.53;5005507;28;20064;-61
2022/04/26 04:36:23;;;;;;;39.17;34.90;;;11.40;83.30;;;9.69;97.01;95568.28;4993853;28;20137;-61
2022/04/26 04:38:49;;;;;;;36.78;32.85;;;11.40;83.30;;;9.74;95.49;95575.59;5004274;28;20121;-61
2022/04/26 04:41:15;;;;;;;38.97;34.45;;;11.40;83.30;;;9.76;96.58;95573.59;5015758;28;20489;-61
2022/04/26 04:43:41;;;;;;;30.52;27.33;;;11.50;83.40;;;9.75;95.84;95575.41;5025655;28;20047;-61
2022/04/26 04:46:06;;;;;;;32.95;29.13;;;11.40;82.70;;;9.75;96.31;95575.41;4990126;28;20116;-61
2022/04/26 04:48:32;;;;;;;30.50;27.27;;;11.50;82.90;;;9.76;95.83;95584.91;5004497;28;20427;-61
2022/04/26 04:50:58;;;;;;;30.83;27.00;;;11.50;83.00;;;9.78;96.13;95582.06;4998492;28;20025;-61
2022/04/26 04:53:24;;;;;;;29.42;26.35;;;11.50;82.80;;;9.79;95.75;95586.31;5007526;28;20045;-61
2022/04/26 04:55:49;;;;;;;28.15;25.25;;;11.50;82.90;;;9.79;95.85;95584.50;4990443;28;20148;-61
2022/04/26 04:58:16;;;;;;;29.85;26.63;;;11.50;83.10;;;9.79;96.29;95589.75;4994457;28;20120;-61
2022/04/26 05:00:41;;;;;;;27.42;24.63;;;11.40;83.10;;;9.79;95.98;95579.25;5007297;28;20469;-61
2022/04/26 05:03:07;;;;;;;26.38;23.58;;;11.40;82.90;;;9.82;95.55;95583.28;5021962;28;20124;-62
2022/04/26 05:05:33;;;;;;;28.40;25.35;;;11.40;82.80;;;9.82;96.22;95589.34;5002596;28;20026;-62
2022/04/26 05:07:59;;;;;;;25.70;22.92;;;11.50;83.10;;;9.84;96.56;95597.03;4990149;28;20112;-62
2022/04/26 05:10:25;;;;;;;25.85;23.08;;;11.50;83.20;;;9.85;95.68;95597.84;5018464;28;20033;-62
2022/04/26 05:12:51;;;;;;;25.35;22.80;;;11.50;83.00;;;9.86;95.79;95586.34;5026300;28;20029;-62
2022/04/26 05:15:17;;;;;;;25.15;22.30;;;11.50;82.80;;;9.88;96.11;95589.56;5009332;28;20033;-62
2022/04/26 05:17:43;;;;;;;25.73;22.80;;;11.50;83.00;;;9.90;95.78;95590.19;4993580;28;20137;-62
2022/04/26 05:20:09;;;;;;;26.90;24.00;;;11.60;83.00;;;9.92;95.59;95585.53;4993406;28;20404;-62
2022/04/26 05:24:53;;;;;;;34.78;28.30;;;11.60;83.10;;;9.95;96.07;95593.03;4974440;28;20134;-62
2022/04/26 05:25:21;;;;;;;39.50;34.70;;;11.70;83.20;;;9.98;95.59;95587.41;4994950;28;20034;-62
2022/04/26 05:27:47;;;;;;;30.45;26.77;;;11.70;82.80;;;10.01;96.41;95587.00;4990330;28;20044;-62
2022/04/26 05:30:13;;;;;;;29.27;24.55;;;11.70;82.50;;;10.04;95.88;95594.47;5000207;28;20037;-62
2022/04/26 05:32:39;;;;;;;28.42;23.23;;;11.80;82.40;;;10.07;95.91;95591.47;5014939;28;20065;-62
2022/04/26 05:35:06;;;;;;;28.10;22.50;;;11.80;82.60;;;10.07;95.89;95594.09;4972713;28;20038;-61
2022/04/26 05:37:31;;;;;;;28.08;22.77;;;11.80;82.40;;;10.08;95.78;95596.50;4990521;28;20203;-62
2022/04/26 05:40:02;;;;;;;24.70;22.13;;;11.80;82.30;;;10.10;95.00;95601.56;4976088;28;20493;-62
2022/04/26 05:42:29;;;;;;;26.13;23.33;;;11.70;82.00;;;10.11;94.37;95603.19;4990504;28;20061;-62
2022/04/26 05:44:55;;;;;;;25.35;22.65;;;11.80;82.00;;;10.12;95.88;95599.56;4988568;28;20057;-62
2022/04/26 05:47:20;;;;;;;30.42;23.70;;;11.80;81.80;;;10.13;94.91;95601.97;4990078;28;20049;-62
2022/04/26 05:49:46;;;;;;;28.40;23.17;;;11.80;81.90;;;10.17;94.57;95606.84;4979818;28;20034;-62
2022/04/26 05:52:12;;;;;;;25.90;22.02;;;11.90;82.30;;;10.19;95.68;95600.41;4989555;28;20395;-61
2022/04/26 05:54:38;;;;;;;26.27;23.30;;;12.00;82.10;;;10.23;95.37;95612.16;5005605;28;20247;-62
2022/04/26 05:57:04;;;;;;;25.55;22.80;;;12.00;81.70;;;10.28;94.07;95608.94;4998557;28;20045;-61
2022/04/26 05:59:30;;;;;;;25.30;21.88;;;12.10;81.40;;;10.30;94.88;95599.03;4991588;28;20029;-61
2022/04/26 06:01:55;;;;;;;25.35;21.98;;;12.10;81.00;;;10.32;94.50;95600.44;4989907;28;20381;-62
2022/04/26 06:04:21;;;;;;;24.90;22.30;;;12.10;81.10;;;10.38;95.39;95601.47;4989044;28;20030;-62
2022/04/26 06:06:47;;;;;;;25.08;22.00;;;12.20;81.20;;;10.45;95.27;95604.94;5013045;28;20071;-62
2022/04/26 06:09:16;;;;;;;20.77;18.77;;;12.30;81.30;;;10.49;93.98;95610.59;4976185;28;20554;-62
2022/04/26 06:11:42;;;;;;;18.80;16.85;;;12.30;79.90;;;10.53;92.99;95612.63;5006535;28;20142;-61
2022/04/26 06:14:08;;;;;;;19.38;17.38;;;12.40;79.40;;;10.57;93.20;95607.75;5021809;28;20041;-61
2022/04/26 06:16:33;;;;;;;19.60;17.60;;;12.40;79.60;;;10.62;93.03;95610.59;4974344;28;20052;-61
2022/04/26 06:18:59;;;;;;;20.08;17.98;;;12.50;79.30;;;10.64;93.28;95611.22;4990284;28;20030;-62
2022/04/26 06:21:25;;;;;;;20.45;18.33;;;12.50;79.20;;;10.66;92.17;95617.91;4976959;28;20138;-62
2022/04/26 06:23:51;;;;;;;21.15;18.77;;;12.50;78.80;;;10.65;90.78;95615.47;4992847;28;20404;-62
2022/04/26 06:26:17;;;;;;;20.63;18.42;;;12.50;78.50;;;10.68;91.57;95617.69;5027858;28;20485;-61
2022/04/26 06:28:42;;;;;;;17.83;16.02;;;12.70;78.70;;;10.77;92.26;95616.47;4992551;28;20200;-61
2022/04/26 06:31:08;;;;;;;18.63;16.73;;;12.80;78.20;;;10.85;91.25;95621.53;4976035;28;23018;-62
2022/04/26 06:33:34;;;;;;;17.38;15.68;;;12.90;77.90;;;10.93;91.93;95613.47;4976830;28;20044;-62
2022/04/26 06:36:00;;;;;;;18.77;16.15;;;13.00;77.40;;;11.00;91.14;95613.44;4991300;28;20091;-61
2022/04/26 06:38:26;;;;;;;16.20;14.57;;;13.10;77.70;;;11.05;91.45;95622.34;5017173;28;20048;-62
2022/04/26 06:40:52;;;;;;;14.98;13.57;;;13.10;77.50;;;11.11;91.13;95614.66;4985065;28;20152;-61
2022/04/26 06:43:19;;;;;;;15.18;13.65;;;13.10;77.70;;;11.19;91.17;95617.88;4979910;28;20505;-61
2022/04/26 06:45:46;;;;;;;14.52;13.05;;;13.30;77.20;;;11.26;89.32;95612.59;4995364;28;20035;-62
2022/04/26 06:48:12;;;;;;;14.30;12.80;;;13.30;75.50;;;11.33;89.27;95616.06;4996180;28;20681;-61
2022/04/26 06:50:38;;;;;;;13.90;12.50;;;13.40;75.50;;;11.39;88.54;95615.22;4992410;28;20400;-61
2022/04/26 06:53:07;;;;;;;12.57;11.27;;;13.50;75.40;;;11.43;87.60;95607.72;4975895;28;20025;-61
2022/04/26 06:55:33;;;;;;;13.18;11.88;;;13.40;75.00;;;11.46;87.57;95613.38;4991788;28;20083;-62
2022/04/26 06:57:59;;;;;;;13.77;12.00;;;13.50;75.10;;;11.48;87.17;95603.44;4991836;28;20057;-62
2022/04/26 07:00:25;;;;;;;11.98;10.77;;;13.40;75.60;;;11.53;87.38;95608.91;4992523;28;20450;-61
2022/04/26 07:02:50;;;;;;;14.00;12.68;;;13.50;75.10;;;11.57;86.95;95602.22;4975726;28;20049;-61
2022/04/26 07:05:16;;;;;;;12.75;11.55;;;13.60;74.80;;;11.61;86.91;95605.25;4975576;28;20038;-63
2022/04/26 07:07:42;;;;;;;13.50;10.98;;;13.60;74.80;;;11.64;86.96;95604.84;4979198;28;20516;-62
2022/04/26 07:10:09;;;;;;;11.63;10.43;;;13.60;75.00;;;11.68;86.85;95608.66;5004024;28;20531;-62
2022/04/26 07:12:35;;;;;;;9.52;8.63;;;13.70;75.40;;;11.70;86.74;95598.72;4976448;28;20042;-62
2022/04/26 07:15:00;;;;;;;9.32;8.40;;;13.70;73.70;;;11.78;85.57;95597.72;5007158;28;20390;-62
2022/04/26 07:17:26;;;;;;;9.38;8.48;;;13.90;72.80;;;11.84;85.49;95602.16;4991357;28;20053;-61
2022/04/26 07:19:52;;;;;;;8.77;7.97;;;14.10;72.90;;;11.93;84.51;95603.53;5016307;28;20116;-62
2022/04/26 07:22:18;;;;;;;9.07;8.23;;;14.20;71.10;;;12.02;84.98;95597.03;5008522;28;20128;-62
2022/04/26 07:24:44;;;;;;;7.28;6.57;;;14.30;72.50;;;12.09;83.82;95602.25;5007658;28;20338;-62
2022/04/26 07:27:10;;;;;;;7.70;6.40;;;14.20;71.20;;;12.08;82.72;95606.72;5007437;28;20684;-61
2022/04/26 07:29:41;;;;;;;7.30;6.53;;;14.10;69.30;;;12.07;81.39;95610.38;5003826;28;20072;-62
2022/04/26 07:32:10;;;;;;;7.22;6.55;;;14.10;69.20;;;12.11;80.79;95608.94;5002784;28;20029;-62
2022/04/26 07:34:36;;;;;;;7.95;6.30;;;14.30;69.00;;;12.19;82.02;95608.69;5007885;28;20045;-62
2022/04/26 07:37:02;;;;;;;6.50;5.78;;;14.60;70.30;;;12.36;81.35;95608.19;4990690;28;20034;-61
2022/04/26 07:39:33;;;;;;;5.57;5.07;;;15.10;67.10;;;12.60;80.33;95612.72;5007994;28;20045;-62
2022/04/26 07:41:59;;;;;;;6.40;5.80;;;15.70;65.70;;;12.78;80.88;95615.44;5018358;28;20056;-61
2022/04/26 07:44:25;;;;;;;5.57;4.90;;;15.60;66.30;;;12.93;80.35;95614.31;4991368;28;20053;-62
2022/04/26 07:46:51;;;;;;;5.65;5.15;;;15.50;65.90;;;13.04;79.86;95610.97;5002596;28;20040;-62
2022/04/26 07:49:19;;;;;;;4.75;4.28;;;15.60;66.50;;;13.14;78.01;95616.59;4977170;28;20057;-62
2022/04/26 07:51:44;;;;;;;4.75;4.25;;;15.60;64.70;;;13.24;77.14;95626.69;4991632;28;20044;-61
2022/04/26 07:54:10;;;;;;;4.68;4.18;;;15.60;63.50;;;13.28;76.39;95618.09;5003162;28;20128;-61
2022/04/26 07:56:36;;;;;;;4.38;3.97;;;15.60;63.00;;;13.30;74.83;95621.31;4991072;28;20121;-62
2022/04/26 07:59:03;;;;;;;4.22;3.83;;;15.40;62.60;;;13.17;75.03;95621.44;5016957;28;20537;-61
2022/04/26 08:01:32;;;;;;;4.20;3.80;;;15.10;63.10;;;13.12;73.68;95624.69;5008262;28;20116;-62
2022/04/26 08:03:59;;;;;;;4.40;3.83;;;15.10;62.90;;;13.08;73.68;95618.25;4991647;28;20033;-62
2022/04/26 08:06:25;;;;;;;4.28;3.88;;;15.10;63.30;;;13.12;73.59;95618.59;4990761;28;20129;-62
2022/04/26 08:08:50;;;;;;;5.15;3.55;;;15.20;63.80;;;13.18;74.83;95628.34;4975790;28;20040;-62
2022/04/26 08:11:16;;;;;;;4.20;3.80;;;15.40;64.50;;;13.20;73.56;95623.66;4975244;28;20233;-62
2022/04/26 08:13:42;;;;;;;4.85;4.38;;;15.40;61.50;;;13.27;73.38;95616.47;5007795;28;20453;-62
2022/04/26 08:16:09;;;;;;;4.07;3.67;;;15.70;61.40;;;13.39;73.96;95625.31;4998844;28;20030;-62
2022/04/26 08:18:35;;;;;;;4.45;3.95;;;16.10;61.90;;;13.61;72.57;95622.28;4976122;28;20041;-62
2022/04/26 08:21:01;;;;;;;4.03;3.42;;;16.60;58.90;;;13.83;71.85;95618.16;5006794;28;20096;-62
2022/04/26 08:23:27;;;;;;;4.63;3.70;;;17.00;56.50;;;14.08;70.40;95623.34;4990917;28;20091;-62
2022/04/26 08:28:37;;;;;;;3.58;3.28;;;18.10;54.20;;;14.79;68.43;95624.47;5018231;28;20039;-62
2022/04/26 08:31:05;;;;;;;3.60;3.30;;;18.40;52.10;;;15.04;68.02;95619.78;4990206;28;20124;-62
2022/04/26 08:33:34;;;;;;;3.53;3.03;;;18.30;52.40;;;15.14;67.12;95617.38;5007472;28;20073;-62
2022/04/26 08:36:00;;;;;;;3.50;2.92;;;17.90;53.10;;;15.14;66.03;95630.63;4993633;28;20036;-62
2022/04/26 08:38:26;;;;;;;3.40;3.10;;;17.60;52.80;;;15.13;65.30;95630.84;5003244;28;20033;-62
2022/04/26 08:40:51;;;;;;;3.20;2.83;;;17.50;53.50;;;15.06;65.91;95630.97;5030835;28;20426;-61
2022/04/26 08:43:17;;;;;;;4.07;3.38;;;17.20;54.50;;;15.01;65.78;95638.78;4993374;28;20485;-62
2022/04/26 08:45:43;;;;;;;3.10;2.80;;;17.10;56.50;;;14.90;65.81;95636.91;5018306;28;20033;-62
2022/04/26 08:50:59;;;;;;;3.90;2.78;;;16.70;55.60;;;14.76;65.15;95646.91;4994413;28;20035;-62
2022/04/26 08:53:25;;;;;;;5.10;3.30;;;16.80;57.10;;;14.64;64.92;95643.41;5001589;28;20041;-62
2022/04/26 08:55:56;;;;;;;3.63;3.10;;;16.40;55.20;;;14.49;63.67;95651.78;5009663;28;20130;-62
2022/04/26 08:58:23;;;;;;;3.92;3.33;;;16.30;56.40;;;14.34;65.09;95651.31;4995103;28;20036;-62
2022/04/26 09:01:19;;;;;;;3.15;2.53;;;16.00;57.60;;;14.23;64.03;95652.06;4990183;28;20797;-61
2022/04/26 09:03:54;;;;;;;2.78;2.45;;;15.90;57.60;;;14.03;65.08;95645.19;5019261;28;20033;-62
2022/04/26 09:06:32;;;;;;;3.55;2.70;;;15.60;56.90;;;13.85;65.06;95650.47;5027587;28;20033;-61
2022/04/26 09:09:15;;;;;;;4.30;2.95;;;15.40;58.10;;;13.66;65.13;95652.28;5013180;28;20120;-62
2022/04/26 09:11:42;;;;;;;5.13;2.60;;;15.20;59.00;;;13.53;65.85;95651.59;5005461;28;20036;-62
2022/04/26 09:14:28;;;;;;;3.92;2.80;;;15.10;59.70;;;13.45;65.85;95661.44;4982183;28;20033;-61
2022/04/26 09:17:11;;;;;;;4.38;2.90;;;15.10;61.10;;;13.40;68.78;95648.06;4992370;28;20057;-62
2022/04/26 09:19:55;;;;;;;4.30;3.22;;;15.10;63.00;;;13.31;68.88;95649.34;5007378;28;20105;-62
2022/04/26 09:22:27;;;;;;;4.13;3.40;;;15.00;63.10;;;13.22;69.19;95655.13;5020728;28;20033;-62
2022/04/26 09:25:04;;;;;;;3.53;3.22;;;14.90;63.60;;;13.18;70.91;95650.28;4990767;28;20022;-62
2022/04/26 09:27:34;;;;;;;4.30;3.50;;;15.10;63.70;;;13.27;71.27;95653.47;5007609;28;20040;-61
2022/04/26 09:30:12;;;;;;;5.07;3.33;;;15.50;65.00;;;13.36;71.59;95651.38;4991153;28;20065;-62
2022/04/26 09:32:49;;;;;;;4.28;2.88;;;15.60;63.90;;;13.48;72.57;95650.44;5017685;28;20061;-62
2022/04/26 09:35:29;;;;;;;2.60;2.00;;;15.80;64.30;;;13.54;69.63;95651.38;4988131;28;20381;-61
2022/04/26 09:37:55;;;;;;;6.22;2.42;;;15.60;61.60;;;13.57;70.90;95658.06;5009509;28;20160;-61
2022/04/26 09:40:21;;;;;;;2.63;2.00;;;15.60;62.40;;;13.49;70.87;95656.50;4973504;28;20041;-61
2022/04/26 09:42:51;;;;;;;2.40;2.10;;;15.30;64.40;;;13.47;72.26;95659.38;4989544;28;20047;-60
2022/04/26 09:45:17;;;;;;;2.78;2.00;;;15.50;66.00;;;13.49;72.48;95652.03;5013032;28;20385;-60
2022/04/26 09:47:43;;;;;;;2.10;1.70;;;15.50;65.70;;;13.49;72.71;95652.03;5011578;28;20188;-61
2022/04/26 09:50:14;;;;;;;2.17;1.83;;;15.50;65.80;;;13.50;71.00;95658.13;4974526;28;20099;-61
2022/04/26 09:52:40;;;;;;;2.10;1.80;;;15.50;62.70;;;13.48;71.47;95658.34;4954596;28;20042;-61
2022/04/26 09:55:07;;;;;;;2.28;1.88;;;15.50;63.40;;;13.55;72.98;95660.13;4956307;28;20113;-61
2022/04/26 09:57:33;;;;;;;2.30;1.77;;;15.70;65.00;;;13.57;71.69;95655.41;4992147;28;20520;-60
2022/04/26 10:00:01;;;;;;;2.13;1.80;;;15.60;62.20;;;13.56;71.24;95661.72;4977321;28;20638;-61
2022/04/26 10:02:33;;;;;;;2.60;2.00;;;15.50;61.90;;;13.55;70.43;95655.63;4977508;28;20034;-61
2022/04/26 10:05:03;;;;;;;2.00;1.80;;;15.50;63.30;;;13.55;70.49;95658.28;4976164;28;20079;-61
2022/04/26 10:07:43;;;;;;;2.38;2.00;;;15.40;63.20;;;13.53;71.30;95659.53;5011790;28;20052;-61
2022/04/26 10:10:09;;;;;;;2.22;1.90;;;15.30;63.60;;;13.45;71.06;95661.44;4985781;28;20044;-60
2022/04/26 10:12:35;;;;;;;2.20;2.00;;;15.10;64.20;;;13.38;70.64;95662.53;4994426;28;20037;-61
2022/04/26 10:15:01;;;;;;;2.03;1.83;;;14.90;63.40;;;13.22;70.60;95671.78;4976266;28;20409;-61
2022/04/26 10:17:30;;;;;;;2.03;1.83;;;14.60;63.30;;;13.05;70.40;95665.38;4984112;28;20064;-61
2022/04/26 10:19:55;;;;;;;2.63;2.13;;;14.40;64.40;;;12.92;70.20;95660.22;4994228;28;20516;-61
2022/04/26 10:22:57;;;;;;;2.65;2.20;;;14.40;64.90;;;12.84;70.00;95663.91;4977608;28;20160;-61
2022/04/26 10:25:25;;;;;;;2.50;2.13;;;14.30;65.00;;;12.73;70.88;95662.78;4992638;28;20037;-61
2022/04/26 10:28:26;;;;;;;3.80;2.25;;;14.20;65.70;;;12.64;71.62;95658.75;4982549;28;20064;-60
2022/04/26 10:30:55;;;;;;;2.53;2.30;;;14.10;66.30;;;12.56;72.23;95664.28;4999434;28;20090;-62
2022/04/26 10:33:38;;;;;;;2.70;2.50;;;14.10;68.10;;;12.52;75.01;95660.47;5029605;28;20106;-61
2022/04/26 10:36:29;;;;;;;2.90;2.50;;;14.10;68.80;;;12.51;74.74;95664.13;4996352;28;20500;-61
2022/04/26 10:39:07;;;;;;;3.95;2.63;;;14.20;68.40;;;12.47;75.54;95657.66;5035709;28;20143;-61
2022/04/26 10:41:41;;;;;;;3.20;2.60;;;14.20;69.20;;;12.46;74.94;95656.84;5007622;28;20081;-61
2022/04/26 10:44:30;;;;;;;3.25;2.42;;;14.30;68.60;;;12.52;76.71;95669.19;4989635;28;20030;-60
2022/04/26 10:47:02;;;;;;;2.90;2.53;;;14.50;69.50;;;12.55;75.87;95670.59;4993598;28;20033;-60
2022/04/26 10:49:40;;;;;;;2.70;2.15;;;14.40;68.80;;;12.59;76.63;95669.16;5025201;28;20130;-60
2022/04/26 10:52:15;;;;;;;2.55;2.35;;;14.60;69.00;;;12.63;75.52;95678.25;5005763;28;20053;-61
2022/04/26 10:57:14;;;;;;;2.50;2.30;;;14.50;67.70;;;12.65;75.77;95681.47;5029633;28;20041;-60
2022/04/26 10:59:43;;;;;;;4.05;2.40;;;14.30;69.30;;;12.62;75.77;95686.38;4992885;28;20045;-61
2022/04/26 11:02:19;;;;;;;3.73;2.50;;;14.20;69.50;;;12.58;76.31;95686.00;5009462;28;20597;-61
2022/04/26 11:04:46;;;;;;;3.63;2.08;;;14.20;69.70;;;12.53;76.51;95683.19;4974674;28;20057;-61
2022/04/26 11:07:16;;;;;;;4.13;2.20;;;14.20;69.50;;;12.47;76.44;95695.41;4995563;28;20041;-62
2022/04/26 11:09:50;;;;;;;3.40;2.30;;;14.10;69.90;;;12.39;76.30;95708.00;4973895;28;20053;-62
2022/04/26 11:12:20;;;;;;;3.83;2.22;;;13.90;70.00;;;12.34;76.56;95710.47;4973601;28;20041;-61
2022/04/26 11:14:46;;;;;;;3.88;2.58;;;13.90;70.00;;;12.19;76.92;95719.44;4989498;28;20041;-61
2022/04/26 11:17:12;;;;;;;5.03;2.83;;;13.60;71.90;;;12.09;78.47;95724.34;5023966;28;20041;-61
2022/04/26 11:19:38;;;;;;;6.50;4.22;;;13.60;72.90;;;11.93;78.68;95735.31;4976620;28;20034;-62
2022/04/26 11:22:09;;;;;;;6.30;4.90;;;13.30;73.60;;;11.75;80.12;95737.75;4992827;28;20033;-62
2022/04/26 11:30:06;;;;;;;4.05;3.38;;;12.70;74.70;;;11.28;80.29;95747.47;5004742;28;20183;-61
2022/04/26 11:32:42;;;;;;;3.17;2.70;;;12.60;75.00;;;11.20;80.44;95750.31;4973186;28;20038;-61
2022/04/26 11:35:11;;;;;;;2.53;2.10;;;12.60;74.20;;;11.07;80.17;95750.28;4962487;28;20131;-62
2022/04/26 11:37:47;;;;;;;2.67;2.28;;;12.40;74.20;;;11.01;80.55;95746.66;5003843;28;20263;-61
2022/04/26 11:40:24;;;;;;;2.65;2.17;;;12.40;74.20;;;10.91;80.71;95751.50;4995831;28;20156;-61
2022/04/26 11:42:50;;;;;;;2.67;2.35;;;12.40;74.40;;;10.87;80.71;95755.53;5012416;28;20122;-61
2022/04/26 11:45:16;;;;;;;2.85;2.20;;;12.30;74.60;;;10.87;81.23;95766.06;4992941;28;20040;-61
2022/04/26 11:47:45;;;;;;;3.88;2.60;;;12.40;74.60;;;10.85;80.81;95768.88;4975782;28;20136;-61
2022/04/26 11:50:20;;;;;;;2.63;2.40;;;12.30;74.60;;;10.84;81.54;95782.22;5024584;28;20049;-61
2022/04/26 11:52:47;;;;;;;3.55;2.50;;;12.30;74.90;;;10.78;80.60;95780.41;5008729;28;20133;-61
2022/04/26 11:55:20;;;;;;;2.95;2.08;;;12.30;74.70;;;10.65;79.96;95789.06;4976229;28;20052;-61
2022/04/26 11:57:48;;;;;;;3.05;2.60;;;11.80;73.40;;;10.55;80.34;95794.69;5008760;28;20037;-61
2022/04/26 12:00:16;;;;;;;4.68;3.20;;;11.90;73.90;;;10.49;79.94;95806.00;5008483;28;20038;-61
2022/04/26 12:02:43;;;;;;;4.90;3.05;;;11.90;74.20;;;10.40;80.27;95807.94;4976194;28;20029;-61
2022/04/26 12:05:09;;;;;;;3.97;3.42;;;11.70;73.50;;;10.28;79.79;95817.41;4973663;28;20149;-61
2022/04/26 12:07:35;;;;;;;3.10;2.75;;;11.50;74.20;;;10.19;79.95;95808.03;5002329;28;20033;-61
2022/04/26 12:10:01;;;;;;;3.65;3.00;;;11.40;74.90;;;10.15;80.75;95825.16;4994717;28;20037;-61
2022/04/26 12:12:27;;;;;;;4.10;3.10;;;11.60;74.90;;;10.08;80.98;95827.75;4995064;28;20132;-61
2022/04/26 12:14:52;;;;;;;4.13;3.30;;;11.40;76.00;;;10.00;80.64;95827.91;4993958;28;20056;-61
2022/04/26 12:17:18;;;;;;;4.50;2.83;;;11.30;75.80;;;9.91;80.76;95833.50;4982690;28;20131;-61
2022/04/26 12:19:50;;;;;;;5.00;2.97;;;11.10;76.20;;;9.85;82.00;95845.59;5011365;28;20078;-62
2022/04/26 12:22:17;;;;;;;4.45;2.92;;;11.20;76.30;;;9.81;81.77;95842.53;4997253;28;20056;-61
2022/04/26 12:24:51;;;;;;;3.42;2.72;;;11.10;76.50;;;9.80;83.13;95843.53;5010547;28;20037;-61
2022/04/26 12:27:25;;;;;;;5.00;2.90;;;11.20;76.80;;;9.81;83.47;95839.91;4976679;28;20495;-61
2022/04/26 12:29:51;;;;;;;2.78;2.45;;;11.30;76.70;;;9.79;82.07;95841.91;5011495;28;20127;-61
2022/04/26 12:32:24;;;;;;;3.28;2.50;;;11.30;76.10;;;9.77;82.77;95843.09;4994631;28;20032;-62
2022/04/26 12:34:57;;;;;;;4.93;2.90;;;11.10;75.70;;;9.71;82.29;95839.41;4993245;28;20503;-61
2022/04/26 12:37:29;;;;;;;2.97;2.35;;;11.10;76.10;;;9.66;81.46;95856.72;5002835;28;20545;-61
2022/04/26 12:40:10;;;;;;;4.15;2.65;;;11.00;75.70;;;9.62;83.39;95856.31;5012208;28;20064;-61
2022/04/26 12:42:38;;;;;;;4.00;3.05;;;11.00;76.70;;;9.54;82.74;95853.81;4997484;28;20033;-60
2022/04/26 12:45:13;;;;;;;7.38;2.85;;;10.80;76.80;;;9.49;83.53;95861.41;4973679;28;20394;-60
2022/04/26 12:50:28;;;;;;;5.13;3.15;;;10.80;77.30;;;9.43;83.78;95863.00;4995828;28;20040;-61
2022/04/26 12:53:25;;;;;;;3.30;2.60;;;10.90;78.00;;;9.39;84.07;95871.44;4989022;28;20571;-60
2022/04/26 12:55:51;;;;;;;2.67;2.00;;;10.70;77.10;;;9.31;83.17;95868.94;4980743;28;20042;-63
2022/04/26 12:58:17;;;;;;;2.72;2.03;;;10.50;76.40;;;9.24;82.95;95873.28;5003910;28;20042;-61
2022/04/26 13:00:50;;;;;;;3.22;2.28;;;10.50;77.40;;;9.24;83.60;95860.16;5009932;28;20068;-61
2022/04/26 13:03:19;;;;;;;4.28;2.17;;;10.60;77.90;;;9.25;83.02;95870.47;5025757;28;20033;-61
2022/04/26 13:05:54;;;;;;;3.05;1.85;;;10.70;76.90;;;9.25;83.11;95874.91;4991009;28;20037;-61
2022/04/26 13:08:20;;;;;;;3.55;2.40;;;10.60;76.10;;;9.24;83.91;95874.09;4992478;28;20519;-61
2022/04/26 13:10:49;;;;;;;3.95;2.50;;;10.70;76.70;;;9.23;82.66;95871.66;5009623;28;20044;-61
2022/04/26 13:13:15;;;;;;;3.75;2.35;;;10.60;76.30;;;9.17;83.33;95868.78;4986524;28;20034;-61
2022/04/26 13:15:41;;;;;;;3.40;2.10;;;10.50;76.30;;;9.16;83.32;95872.41;4973699;28;20103;-62
2022/04/26 13:18:07;;;;;;;4.07;2.53;;;10.60;76.80;;;9.23;82.97;95871.66;4990596;28;20073;-61
2022/04/26 13:20:33;;;;;;;3.65;1.65;;;10.90;76.00;;;9.34;82.88;95876.44;5007507;28;20041;-61
2022/04/26 13:22:59;;;;;;;4.65;2.10;;;11.30;74.90;;;9.44;82.86;95864.63;4989826;28;20036;-61
2022/04/26 13:25:25;;;;;;;3.90;2.47;;;11.50;74.30;;;9.56;83.20;95867.56;4989752;28;20481;-61
2022/04/26 13:27:51;;;;;;;4.18;2.72;;;11.70;74.00;;;9.71;83.58;95860.41;5006640;28;20456;-61
2022/04/26 13:30:17;;;;;;;5.22;2.92;;;11.90;73.40;;;9.87;83.97;95858.53;4990427;28;20033;-61
2022/04/26 13:32:44;;;;;;;3.50;2.83;;;12.20;74.20;;;10.02;83.58;95861.88;5003322;28;20033;-61
2022/04/26 13:35:10;;;;;;;4.70;2.88;;;12.20;73.90;;;10.19;83.97;95857.97;4988817;28;20038;-61
2022/04/26 13:37:38;;;;;;;3.53;2.53;;;12.60;73.30;;;10.37;84.54;95850.41;4990359;28;20052;-61
2022/04/26 13:40:06;;;;;;;3.00;2.20;;;12.80;72.20;;;10.55;82.77;95847.28;5007161;28;20054;-61
2022/04/26 13:42:31;;;;;;;3.38;2.20;;;12.90;70.10;;;10.60;81.14;95854.56;5018855;28;20063;-61
2022/04/26 13:44:58;;;;;;;3.38;2.22;;;12.80;69.20;;;10.63;80.48;95860.25;5001247;28;20063;-61
2022/04/26 13:47:24;;;;;;;3.70;2.25;;;12.80;69.60;;;10.66;79.58;95848.56;4998974;28;20029;-61
2022/04/26 13:49:51;;;;;;;3.17;1.80;;;12.60;68.30;;;10.71;79.43;95846.16;4993639;28;20098;-61
2022/04/26 13:52:17;;;;;;;3.55;1.75;;;12.80;68.30;;;10.71;77.57;95848.78;5000692;28;20025;-62
2022/04/26 13:54:43;;;;;;;2.72;1.63;;;12.60;66.20;;;10.65;77.52;95858.25;4973372;28;20555;-61
2022/04/26 13:57:09;;;;;;;3.25;2.00;;;12.60;67.90;;;10.67;77.45;95876.47;5005719;28;20075;-61
2022/04/26 13:59:36;;;;;;;3.92;2.08;;;12.50;69.50;;;10.69;78.09;95885.00;5006684;28;20072;-61
2022/04/26 14:02:02;;;;;;;3.90;2.00;;;12.50;69.80;;;10.70;78.24;95889.25;4995725;28;20035;-61
2022/04/26 14:04:28;;;;;;;4.32;1.90;;;12.50;70.20;;;10.65;77.45;95889.84;4991172;28;20208;-61
2022/04/26 14:06:54;;;;;;;5.78;1.85;;;12.40;69.90;;;10.62;77.37;95884.13;4989514;28;20124;-61
2022/04/26 14:09:21;;;;;;;2.72;1.98;;;12.20;68.80;;;10.52;77.00;95883.66;4999697;28;20124;-61
2022/04/26 14:11:47;;;;;;;3.40;2.20;;;12.10;70.00;;;10.48;77.94;95878.00;4990641;28;20073;-61
2022/04/26 14:22:33;;;;;;;3.50;2.67;;;12.90;66.90;;;10.72;77.38;95895.94;4994969;28;20075;-62
2022/04/26 14:25:01;;;;;;;4.10;2.50;;;12.80;66.70;;;10.78;76.85;95898.78;4989526;28;20171;-61